createdAt,value
2022-09-14T00:02:36.036Z,9.84
2022-09-14T00:07:47.559Z,9.82
2022-09-14T00:10:18.771Z,9.82
2022-09-14T00:12:48.021Z,9.82
2022-09-14T00:15:17.210Z,9.91
2022-09-14T00:17:51.380Z,9.92
2022-09-14T00:20:23.982Z,9.97
2022-09-14T00:22:53.144Z,9.95
2022-09-14T00:25:22.305Z,9.85
2022-09-14T00:27:51.640Z,9.96
2022-09-14T00:30:25.388Z,9.96
2022-09-14T00:32:59.643Z,9.80
2022-09-14T00:35:30.839Z,10.03
2022-09-14T00:38:00.132Z,10.01
2022-09-14T00:40:34.391Z,10.06
2022-09-14T00:43:04.096Z,10.05
2022-09-14T00:45:33.471Z,10.07
2022-09-14T00:48:07.867Z,10.12
2022-09-14T00:50:39.129Z,10.11
2022-09-14T00:53:13.618Z,10.08
2022-09-14T00:55:43.045Z,10.11
2022-09-14T00:58:12.385Z,10.17
2022-09-14T01:00:46.687Z,10.14
2022-09-14T01:03:20.818Z,10.20
2022-09-14T01:06:06.709Z,10.20
2022-09-14T01:08:59.313Z,10.20
2022-09-14T01:11:51.751Z,10.24
2022-09-14T01:14:31.288Z,10.17
2022-09-14T01:17:06.430Z,10.26
2022-09-14T01:20:01.209Z,10.28
2022-09-14T01:22:41.625Z,10.34
2022-09-14T01:25:26.455Z,10.29
2022-09-14T01:28:02.662Z,10.23
2022-09-14T01:30:35.807Z,10.18
2022-09-14T01:33:20.201Z,10.28
2022-09-14T01:35:55.634Z,10.29
2022-09-14T01:38:31.386Z,10.28
2022-09-14T01:41:04.789Z,10.30
2022-09-14T01:43:40.415Z,10.28
2022-09-14T01:46:15.181Z,10.29
2022-09-14T01:48:54.169Z,10.32
2022-09-14T01:51:28.297Z,10.29
2022-09-14T01:54:03.371Z,10.30
2022-09-14T01:56:38.498Z,10.18
2022-09-14T01:59:15.665Z,10.29
2022-09-14T02:01:51.889Z,10.25
2022-09-14T02:04:28.245Z,10.25
2022-09-14T02:06:58.583Z,10.16
2022-09-14T02:09:28.488Z,10.17
2022-09-14T02:12:00.397Z,10.20
2022-09-14T02:14:33.325Z,10.19
2022-09-14T02:17:02.796Z,10.23
2022-09-14T02:19:37.940Z,10.06
2022-09-14T02:24:42.004Z,10.17
2022-09-14T02:27:11.072Z,10.18
2022-09-14T02:29:47.284Z,10.21
2022-09-14T02:32:25.504Z,10.27
2022-09-14T02:35:01.922Z,10.25
2022-09-14T02:37:47.610Z,10.15
2022-09-14T02:40:24.461Z,10.21
2022-09-14T02:43:13.753Z,10.22
2022-09-14T02:48:41.901Z,10.25
2022-09-14T02:51:19.276Z,10.21
2022-09-14T02:53:56.035Z,10.31
2022-09-14T02:56:26.072Z,10.28
2022-09-14T02:58:55.098Z,10.31
2022-09-14T03:01:31.489Z,10.38
2022-09-14T03:04:01.170Z,10.39
2022-09-14T03:06:30.293Z,10.36
2022-09-14T03:09:11.010Z,10.39
2022-09-14T03:11:40.466Z,10.42
2022-09-14T03:14:11.225Z,10.46
2022-09-14T03:16:47.326Z,10.47
2022-09-14T03:19:17.253Z,10.51
2022-09-14T03:21:46.234Z,10.52
2022-09-14T03:24:15.290Z,10.52
2022-09-14T03:26:45.440Z,10.51
2022-09-14T03:29:14.610Z,10.51
2022-09-14T03:31:45.601Z,10.45
2022-09-14T03:34:14.776Z,10.54
2022-09-14T03:36:49.273Z,10.55
2022-09-14T03:39:18.339Z,10.54
2022-09-14T03:41:47.608Z,10.49
2022-09-14T03:44:16.763Z,10.43
2022-09-14T03:46:48.039Z,10.52
2022-09-14T03:49:17.467Z,10.51
2022-09-14T03:51:46.464Z,10.51
2022-09-14T03:54:15.617Z,10.57
2022-09-14T03:56:52.958Z,10.57
2022-09-14T03:59:24.499Z,10.60
2022-09-14T04:01:55.660Z,10.62
2022-09-14T04:04:27.000Z,10.63
2022-09-14T04:06:56.393Z,10.66
2022-09-14T04:09:25.368Z,10.71
2022-09-14T04:11:54.394Z,10.77
2022-09-14T04:14:25.496Z,10.81
2022-09-14T04:16:56.601Z,10.90
2022-09-14T04:19:25.652Z,10.91
2022-09-14T04:21:54.669Z,10.95
2022-09-14T04:24:27.950Z,10.96
2022-09-14T04:27:09.359Z,10.98
2022-09-14T04:29:39.068Z,11.01
2022-09-14T04:32:10.319Z,11.03
2022-09-14T04:34:39.420Z,11.07
2022-09-14T04:37:08.538Z,11.11
2022-09-14T04:39:37.918Z,11.15
2022-09-14T04:42:07.917Z,11.21
2022-09-14T04:44:37.058Z,11.28
2022-09-14T04:49:43.499Z,11.39
2022-09-14T04:52:12.718Z,11.40
2022-09-14T04:54:41.705Z,11.37
2022-09-14T04:57:10.785Z,11.41
2022-09-14T04:59:44.871Z,11.39
2022-09-14T05:02:14.372Z,11.34
2022-09-14T05:07:25.183Z,11.56
2022-09-14T05:09:54.305Z,11.52
2022-09-14T05:12:28.502Z,11.56
2022-09-14T05:14:57.894Z,11.56
2022-09-14T05:17:32.206Z,11.55
2022-09-14T05:20:03.997Z,11.57
2022-09-14T05:22:33.114Z,11.60
2022-09-14T05:25:02.789Z,11.54
2022-09-14T05:27:32.130Z,11.45
2022-09-14T05:30:01.119Z,11.60
2022-09-14T05:32:30.190Z,11.65
2022-09-14T05:34:59.243Z,11.71
2022-09-14T05:37:30.172Z,11.81
2022-09-14T05:39:59.432Z,11.95
2022-09-14T05:42:28.497Z,11.89
2022-09-14T05:45:02.896Z,11.81
2022-09-14T05:47:38.377Z,11.74
2022-09-14T05:50:10.433Z,11.75
2022-09-14T05:52:41.459Z,11.88
2022-09-14T05:55:11.377Z,11.91
2022-09-14T05:57:40.395Z,11.83
2022-09-14T06:00:16.443Z,11.85
2022-09-14T06:02:48.430Z,11.98
2022-09-14T06:05:23.666Z,12.06
2022-09-14T06:07:55.403Z,12.08
2022-09-14T06:10:24.592Z,12.08
2022-09-14T06:12:55.589Z,12.20
2022-09-14T06:15:25.037Z,12.41
2022-09-14T06:17:55.169Z,12.44
2022-09-14T06:20:35.920Z,12.43
2022-09-14T06:23:07.507Z,12.36
2022-09-14T06:25:36.658Z,12.30
2022-09-14T06:28:05.678Z,12.37
2022-09-14T06:30:34.772Z,12.49
2022-09-14T06:33:06.262Z,12.56
2022-09-14T06:35:41.657Z,12.58
2022-09-14T06:38:17.879Z,12.61
2022-09-14T06:40:53.822Z,12.77
2022-09-14T06:43:29.700Z,12.86
2022-09-14T06:46:04.670Z,12.79
2022-09-14T06:48:41.534Z,12.81
2022-09-14T06:51:14.772Z,13.02
2022-09-14T06:53:46.066Z,12.88
2022-09-14T06:56:15.934Z,12.70
2022-09-14T06:58:45.438Z,12.65
2022-09-14T07:01:17.424Z,12.54
2022-09-14T07:03:46.891Z,12.47
2022-09-14T07:06:20.578Z,12.34
2022-09-14T07:08:52.953Z,12.20
2022-09-14T07:11:23.485Z,12.13
2022-09-14T07:14:04.414Z,12.05
2022-09-14T07:16:35.117Z,12.06
2022-09-14T07:19:06.946Z,12.06
2022-09-14T07:21:36.252Z,12.21
2022-09-14T07:24:07.530Z,12.17
2022-09-14T07:26:46.886Z,12.14
2022-09-14T07:29:18.541Z,12.10
2022-09-14T07:31:54.473Z,12.06
2022-09-14T07:34:28.628Z,12.14
2022-09-14T07:36:57.731Z,12.15
2022-09-14T07:39:28.644Z,12.18
2022-09-14T07:41:57.801Z,12.26
2022-09-14T07:44:26.811Z,12.18
2022-09-14T07:46:55.982Z,12.23
2022-09-14T07:49:25.522Z,12.29
2022-09-14T07:51:55.259Z,12.17
2022-09-14T07:54:24.329Z,12.34
2022-09-14T07:57:00.454Z,12.43
2022-09-14T07:59:37.678Z,12.48
2022-09-14T08:02:08.514Z,12.44
2022-09-14T08:04:38.878Z,12.80
2022-09-14T08:07:09.317Z,13.44
2022-09-14T08:09:39.853Z,13.97
2022-09-14T08:12:11.278Z,14.17
2022-09-14T08:14:50.562Z,14.29
2022-09-14T08:17:21.608Z,14.28
2022-09-14T08:19:51.654Z,14.17
2022-09-14T08:22:20.710Z,14.02
2022-09-14T08:24:49.734Z,13.97
2022-09-14T08:27:22.656Z,14.17
2022-09-14T08:29:51.786Z,14.47
2022-09-14T08:32:20.945Z,14.89
2022-09-14T08:34:56.654Z,15.01
2022-09-14T08:37:25.928Z,14.92
2022-09-14T08:39:55.323Z,14.71
2022-09-14T08:42:26.923Z,14.67
2022-09-14T08:45:00.189Z,15.06
2022-09-14T08:47:33.819Z,15.44
2022-09-14T08:50:07.307Z,15.52
2022-09-14T08:52:39.709Z,15.30
2022-09-14T08:55:28.249Z,15.07
2022-09-14T08:58:06.227Z,14.47
2022-09-14T09:00:42.830Z,14.07
2022-09-14T09:03:58.233Z,13.92
2022-09-14T09:06:41.118Z,13.79
2022-09-14T09:09:17.011Z,13.68
2022-09-14T09:11:50.328Z,13.66
2022-09-14T09:14:32.147Z,13.73
2022-09-14T09:17:07.513Z,13.88
2022-09-14T09:19:47.232Z,13.72
2022-09-14T09:22:22.328Z,13.65
2022-09-14T09:24:55.269Z,13.60
2022-09-14T09:27:30.177Z,13.86
2022-09-14T09:30:02.298Z,13.86
2022-09-14T09:32:34.293Z,13.87
2022-09-14T09:35:26.543Z,13.84
2022-09-14T09:38:01.677Z,13.89
2022-09-14T09:40:37.100Z,13.88
2022-09-14T09:43:12.630Z,13.68
2022-09-14T09:45:58.629Z,13.74
2022-09-14T09:48:31.832Z,13.66
2022-09-14T09:51:05.889Z,13.54
2022-09-14T09:53:39.873Z,13.48
2022-09-14T09:56:09.710Z,13.28
2022-09-14T09:58:40.208Z,13.36
2022-09-14T10:01:23.658Z,13.43
2022-09-14T10:04:29.696Z,13.37
2022-09-14T10:06:59.424Z,13.23
2022-09-14T10:09:30.732Z,13.22
2022-09-14T10:12:01.396Z,13.40
2022-09-14T10:14:33.069Z,13.33
2022-09-14T10:17:24.019Z,13.34
2022-09-14T10:19:55.265Z,13.43
2022-09-14T10:22:31.515Z,13.68
2022-09-14T10:25:25.587Z,14.03
2022-09-14T10:28:07.865Z,14.21
2022-09-14T10:30:49.326Z,14.34
2022-09-14T10:33:20.815Z,14.40
2022-09-14T10:35:58.130Z,14.38
2022-09-14T10:38:41.752Z,14.33
2022-09-14T10:41:26.771Z,14.20
2022-09-14T10:44:10.020Z,14.33
2022-09-14T10:46:47.993Z,14.33
2022-09-14T10:49:37.419Z,14.34
2022-09-14T10:52:16.263Z,14.33
2022-09-14T10:55:34.801Z,14.33
2022-09-14T10:58:24.317Z,14.21
2022-09-14T11:01:07.741Z,14.09
2022-09-14T11:03:49.891Z,14.13
2022-09-14T11:06:42.552Z,14.32
2022-09-14T11:09:21.662Z,14.37
2022-09-14T11:12:07.563Z,14.46
2022-09-14T11:15:01.169Z,14.20
2022-09-14T11:17:51.235Z,14.12
2022-09-14T11:20:41.937Z,13.81
2022-09-14T11:23:37.513Z,13.81
2022-09-14T11:26:16.936Z,13.74
2022-09-14T11:28:49.938Z,13.74
2022-09-14T11:31:29.303Z,13.61
2022-09-14T11:34:03.825Z,13.85
2022-09-14T11:36:38.915Z,14.13
2022-09-14T11:39:20.835Z,14.63
2022-09-14T11:41:52.249Z,15.13
2022-09-14T11:44:25.651Z,15.33
2022-09-14T11:47:00.954Z,15.41
2022-09-14T11:49:39.296Z,15.23
2022-09-14T11:52:15.752Z,15.00
2022-09-14T11:54:53.397Z,14.82
2022-09-14T11:57:25.792Z,14.59
2022-09-14T12:00:01.578Z,14.30
2022-09-14T12:03:04.078Z,14.41
2022-09-14T12:05:36.273Z,14.45
2022-09-14T12:08:22.858Z,14.34
2022-09-14T12:11:22.424Z,14.66
2022-09-14T12:14:29.875Z,14.80
2022-09-14T12:17:28.704Z,15.06
2022-09-14T12:20:01.818Z,15.28
2022-09-14T12:22:40.646Z,15.45
2022-09-14T12:25:19.950Z,15.69
2022-09-14T12:27:57.056Z,15.77
2022-09-14T12:31:07.703Z,15.84
2022-09-14T12:33:46.309Z,15.69
2022-09-14T12:36:57.465Z,15.54
2022-09-14T12:39:28.566Z,15.30
2022-09-14T12:42:27.880Z,15.48
2022-09-14T12:44:59.020Z,15.45
2022-09-14T12:48:00.668Z,15.45
2022-09-14T12:57:06.955Z,14.95
2022-09-14T12:59:45.058Z,14.89
2022-09-14T13:02:51.921Z,15.10
2022-09-14T13:05:29.278Z,15.27
2022-09-14T13:08:00.198Z,15.31
2022-09-14T13:10:33.934Z,15.31
2022-09-14T13:13:10.260Z,15.23
2022-09-14T13:15:49.437Z,15.10
2022-09-14T13:18:36.081Z,15.03
2022-09-14T13:21:20.041Z,14.95
2022-09-14T13:23:49.507Z,14.72
2022-09-14T13:26:21.487Z,14.61
2022-09-14T13:29:01.664Z,14.53
2022-09-14T13:31:40.021Z,14.45
2022-09-14T13:34:09.910Z,14.29
2022-09-14T13:36:44.962Z,14.18
2022-09-14T13:39:26.968Z,14.09
2022-09-14T13:42:02.994Z,14.01
2022-09-14T13:44:46.589Z,13.96
2022-09-14T13:47:17.664Z,13.94
2022-09-14T13:49:55.895Z,14.02
2022-09-14T13:53:00.545Z,14.10
2022-09-14T13:55:34.975Z,14.22
2022-09-14T13:58:23.134Z,14.27
2022-09-14T14:01:03.385Z,14.25
2022-09-14T14:03:35.936Z,14.25
2022-09-14T14:06:24.782Z,14.21
2022-09-14T14:09:01.458Z,14.13
2022-09-14T14:11:44.677Z,14.10
2022-09-14T14:14:30.400Z,13.99
2022-09-14T14:17:41.273Z,13.90
2022-09-14T14:20:36.442Z,13.51
2022-09-14T14:23:26.682Z,13.83
2022-09-14T14:26:07.896Z,13.81
2022-09-14T14:28:43.527Z,13.79
2022-09-14T14:31:19.756Z,13.75
2022-09-14T14:33:58.449Z,13.67
2022-09-14T14:36:27.964Z,13.62
2022-09-14T14:38:58.075Z,13.64
2022-09-14T14:41:30.006Z,13.65
2022-09-14T14:43:59.254Z,13.63
2022-09-14T14:46:33.555Z,13.70
2022-09-14T14:49:04.849Z,13.66
2022-09-14T14:51:39.394Z,13.60
2022-09-14T14:54:09.710Z,13.57
2022-09-14T14:56:46.013Z,13.43
2022-09-14T14:59:26.247Z,13.28
2022-09-14T15:01:55.990Z,13.21
2022-09-14T15:04:28.449Z,13.19
2022-09-14T15:07:03.382Z,13.04
2022-09-14T15:09:36.218Z,13.23
2022-09-14T15:12:11.399Z,13.23
2022-09-14T15:14:40.488Z,13.25
2022-09-14T15:17:09.780Z,13.22
2022-09-14T15:19:41.311Z,13.22
2022-09-14T15:22:16.322Z,13.06
2022-09-14T15:24:53.357Z,13.03
2022-09-14T15:27:30.464Z,13.10
2022-09-14T15:29:59.902Z,13.07
2022-09-14T15:32:32.025Z,13.06
2022-09-14T15:35:03.866Z,12.89
2022-09-14T15:37:34.302Z,13.02
2022-09-14T15:40:09.052Z,12.98
2022-09-14T15:42:38.237Z,12.93
2022-09-14T15:45:08.852Z,13.02
2022-09-14T15:47:38.102Z,12.98
2022-09-14T15:50:14.221Z,12.98
2022-09-14T15:52:43.603Z,12.94
2022-09-14T15:55:14.240Z,12.77
2022-09-14T15:57:43.505Z,12.84
2022-09-14T16:00:17.283Z,12.76
2022-09-14T16:02:46.556Z,12.67
2022-09-14T16:05:18.572Z,12.61
2022-09-14T16:07:49.011Z,12.50
2022-09-14T16:10:25.099Z,12.41
2022-09-14T16:12:55.925Z,12.35
2022-09-14T16:15:30.178Z,12.24
2022-09-14T16:17:59.231Z,12.20
2022-09-14T16:20:40.533Z,12.20
2022-09-14T16:23:10.091Z,12.14
2022-09-14T16:25:40.421Z,12.07
2022-09-14T16:28:14.854Z,12.07
2022-09-14T16:30:47.740Z,12.11
2022-09-14T16:33:17.117Z,12.14
2022-09-14T16:35:48.083Z,12.16
2022-09-14T16:38:22.229Z,12.14
2022-09-14T16:40:51.294Z,12.19
2022-09-14T16:43:20.360Z,12.21
2022-09-14T16:45:54.457Z,12.14
2022-09-14T16:48:23.889Z,12.14
2022-09-14T16:51:03.858Z,12.18
2022-09-14T16:53:34.655Z,12.13
2022-09-14T16:56:06.127Z,11.97
2022-09-14T16:58:36.194Z,12.15
2022-09-14T17:01:07.549Z,12.19
2022-09-14T17:06:16.116Z,12.16
2022-09-14T17:08:46.810Z,12.11
2022-09-14T17:11:21.300Z,12.08
2022-09-14T17:13:50.817Z,12.04
2022-09-14T17:16:22.903Z,12.07
2022-09-14T17:18:55.742Z,12.11
2022-09-14T17:21:33.726Z,12.05
2022-09-14T17:24:04.209Z,12.07
2022-09-14T17:26:38.668Z,12.11
2022-09-14T17:29:08.377Z,12.08
2022-09-14T17:31:39.267Z,12.13
2022-09-14T17:34:11.913Z,12.14
2022-09-14T17:36:43.174Z,12.17
2022-09-14T17:39:13.766Z,12.17
2022-09-14T17:41:48.205Z,12.22
2022-09-14T17:44:17.562Z,12.19
2022-09-14T17:46:52.504Z,12.20
2022-09-14T17:49:23.365Z,12.19
2022-09-14T17:51:54.510Z,12.21
2022-09-14T17:54:23.778Z,12.24
2022-09-14T17:56:52.909Z,12.28
2022-09-14T17:59:28.815Z,12.23
2022-09-14T18:01:58.110Z,12.21
2022-09-14T18:04:27.537Z,12.19
2022-09-14T18:06:58.683Z,12.23
2022-09-14T18:09:27.837Z,12.13
2022-09-14T18:11:57.927Z,12.30
2022-09-14T18:14:27.711Z,12.30
2022-09-14T18:19:34.511Z,12.27
2022-09-14T18:22:06.333Z,12.22
2022-09-14T18:24:35.727Z,12.21
2022-09-14T18:27:04.984Z,12.21
2022-09-14T18:29:34.320Z,12.22
2022-09-14T18:32:03.872Z,12.18
2022-09-14T18:34:32.985Z,12.22
2022-09-14T18:37:07.761Z,12.13
2022-09-14T18:39:47.247Z,12.11
2022-09-14T18:42:16.526Z,12.11
2022-09-14T18:44:46.092Z,12.09
2022-09-14T18:47:21.348Z,12.12
2022-09-14T18:49:51.418Z,12.04
2022-09-14T18:52:22.826Z,12.04
2022-09-14T18:54:52.486Z,12.04
2022-09-14T18:57:21.910Z,12.03
2022-09-14T18:59:51.306Z,12.00
2022-09-14T19:02:20.531Z,11.98
2022-09-14T19:04:51.145Z,11.92
2022-09-14T19:07:22.233Z,11.91
2022-09-14T19:09:51.452Z,11.93
2022-09-14T19:12:20.606Z,11.81
2022-09-14T19:14:55.430Z,11.83
2022-09-14T19:17:24.849Z,11.83
2022-09-14T19:19:54.508Z,11.87
2022-09-14T19:22:26.458Z,11.85
2022-09-14T19:24:55.623Z,11.83
2022-09-14T19:27:24.700Z,11.74
2022-09-14T19:29:54.394Z,11.78
2022-09-14T19:32:23.459Z,11.77
2022-09-14T19:34:52.699Z,11.77
2022-09-14T19:37:21.996Z,11.80
2022-09-14T19:39:53.345Z,11.81
2022-09-14T19:42:24.396Z,11.79
2022-09-14T19:45:01.392Z,11.82
2022-09-14T19:47:30.676Z,11.66
2022-09-14T19:50:00.925Z,11.70
2022-09-14T19:52:30.261Z,11.78
2022-09-14T19:55:01.986Z,11.78
2022-09-14T19:57:37.074Z,11.80
2022-09-14T20:00:18.069Z,11.79
2022-09-14T20:02:48.043Z,11.75
2022-09-14T20:05:17.356Z,11.70
2022-09-14T20:07:46.986Z,11.66
2022-09-14T20:10:18.666Z,11.56
2022-09-14T20:12:49.694Z,11.78
2022-09-14T20:17:59.478Z,11.72
2022-09-14T20:20:28.700Z,11.58
2022-09-14T20:23:04.788Z,11.68
2022-09-14T20:25:35.839Z,11.56
2022-09-14T20:28:10.138Z,11.64
2022-09-14T20:30:39.288Z,11.61
2022-09-14T20:33:13.392Z,11.64
2022-09-14T20:35:44.660Z,11.57
2022-09-14T20:38:19.536Z,11.62
2022-09-14T20:40:50.699Z,11.58
2022-09-14T20:43:19.861Z,11.59
2022-09-14T20:45:49.148Z,11.53
2022-09-14T20:48:19.380Z,11.52
2022-09-14T20:50:53.448Z,11.52
2022-09-14T20:53:22.698Z,11.49
2022-09-14T20:56:00.633Z,11.49
2022-09-14T20:58:30.006Z,11.39
2022-09-14T21:01:04.033Z,11.43
2022-09-14T21:03:33.913Z,11.43
2022-09-14T21:06:04.041Z,11.48
2022-09-14T21:08:40.843Z,11.49
2022-09-14T21:11:19.137Z,11.52
2022-09-14T21:13:48.543Z,11.46
2022-09-14T21:16:20.265Z,11.54
2022-09-14T21:18:49.862Z,11.61
2022-09-14T21:21:24.214Z,11.54
2022-09-14T21:23:55.436Z,11.53
2022-09-14T21:26:28.571Z,11.56
2022-09-14T21:29:00.524Z,11.55
2022-09-14T21:31:30.591Z,11.54
2022-09-14T21:34:03.559Z,11.47
2022-09-14T21:36:35.369Z,11.50
2022-09-14T21:39:08.199Z,11.48
2022-09-14T21:41:40.519Z,11.60
2022-09-14T21:44:10.011Z,11.57
2022-09-14T21:46:39.514Z,11.53
2022-09-14T21:49:09.178Z,11.54
2022-09-14T21:51:38.722Z,11.56
2022-09-14T21:54:14.985Z,11.56
2022-09-14T21:56:47.502Z,11.52
2022-09-14T21:59:18.845Z,11.53
2022-09-14T22:01:48.712Z,11.56
2022-09-14T22:04:19.637Z,11.57
2022-09-14T22:06:50.886Z,11.54
2022-09-14T22:09:22.097Z,11.59
2022-09-14T22:11:53.548Z,11.57
2022-09-14T22:14:24.502Z,11.60
2022-09-14T22:16:58.670Z,11.63
2022-09-14T22:19:30.637Z,11.52
2022-09-14T22:22:00.654Z,11.60
2022-09-14T22:24:37.032Z,11.68
2022-09-14T22:27:14.445Z,11.66
2022-09-14T22:29:43.698Z,11.63
2022-09-14T22:32:14.039Z,11.62
2022-09-14T22:34:48.831Z,11.62
2022-09-14T22:37:18.874Z,11.60
2022-09-14T22:39:48.750Z,11.62
2022-09-14T22:42:19.938Z,11.56
2022-09-14T22:44:54.461Z,11.68
2022-09-14T22:47:23.764Z,11.63
2022-09-14T22:49:53.278Z,11.64
2022-09-14T22:52:23.691Z,11.59
2022-09-14T22:54:52.793Z,11.63
2022-09-14T22:57:24.446Z,11.65
2022-09-14T22:59:53.224Z,11.71
2022-09-14T23:02:22.380Z,11.65
2022-09-14T23:04:52.060Z,11.65
2022-09-14T23:07:21.570Z,11.61
2022-09-14T23:09:50.710Z,11.69
2022-09-14T23:12:19.739Z,11.66
2022-09-14T23:14:50.766Z,11.71
2022-09-14T23:17:25.051Z,11.75
2022-09-14T23:19:54.169Z,11.73
2022-09-14T23:22:28.417Z,11.65
2022-09-14T23:24:57.479Z,11.68
2022-09-14T23:27:26.500Z,11.76
2022-09-14T23:29:58.431Z,11.77
2022-09-14T23:32:27.729Z,11.77
2022-09-14T23:34:56.728Z,11.76
2022-09-14T23:37:26.187Z,11.77
2022-09-14T23:39:57.752Z,11.81
2022-09-14T23:42:27.087Z,11.82
2022-09-14T23:44:58.085Z,11.79
2022-09-14T23:47:27.229Z,11.83
2022-09-14T23:49:56.557Z,11.83
2022-09-14T23:52:26.386Z,11.83
2022-09-14T23:54:55.713Z,11.65
2022-09-14T23:57:24.835Z,11.82
2022-09-14T23:59:53.847Z,11.81
